Mindoro Star — V7RE6 — position and weather

sailwx.info

Track history (hours):
 
Tides and Currents Weather Stations Pressure Air Temp Water Temp Dewpoint Dewpoint Depression Visibility Wind Speed Wind Dir Waves Ship Positions

Mindoro Star

Last reported at 2016-May-23 19:20 UTC. Time now 2016-May-26 16:26 UTC.
Position N 09°07' W 079°47'.

Length 238 m; draft 11.4 m.

Type: Tanker. MMSI: 538003490.

Date/timePositionNaut miles runAvg speedWind from/ knotsBaromVisibWave heightAir tempDewpointWater temp
2016-May-23 19:20N 09°07' W 079°47'7 8.7
2016-May-23 18:33N 09°11' W 079°52'4 4.5
2016-May-23 17:33N 09°14' W 079°56'0 0.0
2016-May-23 16:21N 09°14' W 079°56'0 0.0
2016-May-23 15:18N 09°14' W 079°56'0 0.0
2016-May-23 14:15N 09°14' W 079°56'0 0.0
2016-May-23 12:33N 09°14' W 079°56'0 0.0
2016-May-23 11:17N 09°14' W 079°56'2 3.2
2016-May-23 10:33N 09°16' W 079°55'0 0.4
2016-May-23 09:33N 09°16' W 079°55'1 0.6
2016-May-23 08:33N 09°17' W 079°55'6 5.8
2016-May-23 07:33N 09°23' W 079°55'3 2.4
2016-May-23 06:27N 09°25' W 079°56'0 0.0
2016-May-23 05:33N 09°25' W 079°56'0 0.0
2016-May-23 04:30N 09°25' W 079°56'0 0.0
2016-May-23 03:33N 09°25' W 079°56'0 0.0
2016-May-23 02:30N 09°25' W 079°56'0 0.2
2016-May-23 01:33N 09°25' W 079°56'6 5.7
2016-May-23 00:33N 09°30' W 079°54'1110.8
2016-May-22 23:33N 09°41' W 079°54'1211.4
2016-May-22 22:32N 09°53' W 079°56'  
Track history (hours):
 
Tides and Currents Weather Stations Pressure Air Temp Water Temp Dewpoint Dewpoint Depression Visibility Wind Speed Wind Dir Waves Ship Positions

Mindoro Star

Last reported at 2016-May-23 19:20 UTC. Time now 2016-May-26 16:26 UTC.
Position N 09°07' W 079°47'.

Length 238 m; draft 11.4 m.

Type: Tanker. MMSI: 538003490.

Date/timePositionNaut miles runAvg speedWind from/ knotsBaromVisibWave heightAir tempDewpointWater temp
2016-May-23 19:20N 09°07' W 079°47'7 8.7
2016-May-23 18:33N 09°11' W 079°52'4 4.5
2016-May-23 17:33N 09°14' W 079°56'0 0.0
2016-May-23 16:21N 09°14' W 079°56'0 0.0
2016-May-23 15:18N 09°14' W 079°56'0 0.0
2016-May-23 14:15N 09°14' W 079°56'0 0.0
2016-May-23 12:33N 09°14' W 079°56'0 0.0
2016-May-23 11:17N 09°14' W 079°56'2 3.2
2016-May-23 10:33N 09°16' W 079°55'0 0.4
2016-May-23 09:33N 09°16' W 079°55'1 0.6
2016-May-23 08:33N 09°17' W 079°55'6 5.8
2016-May-23 07:33N 09°23' W 079°55'3 2.4
2016-May-23 06:27N 09°25' W 079°56'0 0.0
2016-May-23 05:33N 09°25' W 079°56'0 0.0
2016-May-23 04:30N 09°25' W 079°56'0 0.0
2016-May-23 03:33N 09°25' W 079°56'0 0.0
2016-May-23 02:30N 09°25' W 079°56'0 0.2
2016-May-23 01:33N 09°25' W 079°56'6 5.7
2016-May-23 00:33N 09°30' W 079°54'1110.8
2016-May-22 23:33N 09°41' W 079°54'1211.4
2016-May-22 22:32N 09°53' W 079°56'  

Dump ship's entire track history